Time;durP1;ratioP1;P1;durP2;ratioP2;P2;SDS_P1;SDS_P2;PMS_P1;PMS_P2;Temp;Humidity;BMP_temperature;BMP_pressure;BME280_temperature;BME280_humidity;BME280_pressure;Samples;Min_cycle;Max_cycle;Signal;HPM_P1;HPM_P2
2021/07/03 00:00:34;;;;;;;9.55;6.10;;;20.30;99.90;;;;;;5016175;28;20431;-86
2021/07/03 00:03:00;;;;;;;10.10;6.20;;;20.30;99.90;;;;;;5032702;28;20033;-86
2021/07/03 00:05:26;;;;;;;12.23;5.95;;;20.40;99.90;;;;;;5032267;28;20568;-86
2021/07/03 00:07:52;;;;;;;8.90;6.03;;;20.40;99.90;;;;;;5032269;28;20048;-86
2021/07/03 00:10:18;;;;;;;11.40;6.03;;;20.40;99.90;;;;;;5016378;28;20124;-86
2021/07/03 00:12:44;;;;;;;12.63;6.82;;;20.50;99.90;;;;;;5032102;28;20508;-85
2021/07/03 00:15:14;;;;;;;14.70;6.95;;;20.50;99.90;;;;;;5031822;28;20076;-85
2021/07/03 00:17:40;;;;;;;12.05;6.80;;;20.60;99.90;;;;;;5015535;28;20028;-86
2021/07/03 00:20:09;;;;;;;17.23;8.38;;;20.60;99.90;;;;;;5031915;28;20095;-85
2021/07/03 00:22:35;;;;;;;16.35;9.60;;;20.60;99.90;;;;;;5015121;28;20021;-85
2021/07/03 00:25:01;;;;;;;18.67;8.90;;;20.70;99.90;;;;;;5015168;28;20097;-85
2021/07/03 00:27:27;;;;;;;18.55;9.82;;;20.70;99.90;;;;;;5015104;28;20033;-85
2021/07/03 00:29:52;;;;;;;21.20;9.88;;;20.70;99.90;;;;;;5014773;28;20025;-87
2021/07/03 00:32:18;;;;;;;25.52;11.10;;;20.70;99.90;;;;;;5018302;28;20389;-86
2021/07/03 00:34:44;;;;;;;23.77;10.25;;;20.60;99.90;;;;;;5053033;28;20020;-86
2021/07/03 00:37:09;;;;;;;18.77;10.55;;;20.60;99.90;;;;;;5053674;28;20029;-86
2021/07/03 00:39:35;;;;;;;17.70;9.73;;;20.50;99.90;;;;;;5052895;28;20021;-86
2021/07/03 00:42:01;;;;;;;18.55;10.65;;;20.50;99.90;;;;;;5054222;28;20475;-86
2021/07/03 00:44:28;;;;;;;28.25;11.93;;;20.40;99.90;;;;;;5053482;28;20060;-87
2021/07/03 00:46:54;;;;;;;19.77;10.23;;;20.40;99.90;;;;;;5053645;28;20021;-86
2021/07/03 00:49:20;;;;;;;20.60;11.35;;;20.40;99.90;;;;;;5052321;28;20027;-87
2021/07/03 00:51:45;;;;;;;18.38;10.15;;;20.30;99.90;;;;;;5052103;28;20771;-87
2021/07/03 00:54:12;;;;;;;14.85;9.40;;;20.30;99.90;;;;;;5052063;28;20049;-87
2021/07/03 00:56:38;;;;;;;16.63;10.10;;;20.30;99.90;;;;;;5053365;28;20021;-87
2021/07/03 00:59:04;;;;;;;24.58;12.88;;;20.40;99.90;;;;;;5052078;28;20028;-87
2021/07/03 01:01:29;;;;;;;40.40;13.38;;;20.40;99.90;;;;;;5053809;28;20091;-87
2021/07/03 01:03:55;;;;;;;49.72;13.88;;;20.40;99.90;;;;;;5053584;28;20383;-86
2021/07/03 01:06:24;;;;;;;43.47;12.63;;;20.40;99.90;;;;;;5053837;28;20464;-88
2021/07/03 01:08:50;;;;;;;35.45;12.80;;;20.40;99.90;;;;;;5052028;28;20029;-88
2021/07/03 01:11:29;;;;;;;39.70;13.45;;;20.40;99.90;;;;;;5053526;28;20036;-88
2021/07/03 01:13:55;;;;;;;38.65;11.57;;;20.50;99.90;;;;;;5052096;28;20072;-88
2021/07/03 01:16:21;;;;;;;37.35;11.30;;;20.50;99.90;;;;;;5052109;28;20384;-89
2021/07/03 01:18:47;;;;;;;31.80;10.55;;;20.50;99.90;;;;;;5053445;28;20021;-89
2021/07/03 01:21:16;;;;;;;46.40;12.32;;;20.50;99.90;;;;;;5053517;28;20021;-89
2021/07/03 01:23:42;;;;;;;56.60;14.15;;;20.50;99.90;;;;;;5055874;28;20029;-89
2021/07/03 01:26:08;;;;;;;44.00;13.45;;;20.60;99.80;;;;;;5057171;28;20036;-89
2021/07/03 01:28:34;;;;;;;35.25;12.50;;;20.60;99.70;;;;;;5056043;28;20033;-89
2021/07/03 01:30:59;;;;;;;58.38;14.60;;;20.60;99.50;;;;;;5056014;28;20021;-89
2021/07/03 01:33:26;;;;;;;50.97;13.05;;;20.60;99.30;;;;;;5057537;28;20021;-89
2021/07/03 01:35:52;;;;;;;54.15;14.93;;;20.60;99.20;;;;;;5039224;28;20689;-89
2021/07/03 01:38:20;;;;;;;14.45;6.93;;;20.60;98.90;;;;;;5055793;28;20021;-89
2021/07/03 01:40:46;;;;;;;14.05;6.95;;;20.60;98.40;;;;;;5055657;28;20741;-89
2021/07/03 01:43:27;;;;;;;16.58;7.15;;;20.60;98.10;;;;;;5038715;28;20120;-88
2021/07/03 01:45:57;;;;;;;17.98;6.95;;;20.60;97.80;;;;;;5039079;28;20025;-88
2021/07/03 01:48:32;;;;;;;9.65;6.63;;;20.60;97.90;;;;;;5039896;28;20029;-90
2021/07/03 01:50:59;;;;;;;13.55;6.38;;;20.50;97.60;;;;;;5039813;28;20033;-90
2021/07/03 01:53:26;;;;;;;12.65;6.30;;;20.50;97.60;;;;;;5038829;28;20380;-89
2021/07/03 01:55:53;;;;;;;12.55;6.93;;;20.50;97.30;;;;;;5038945;28;20025;-85
2021/07/03 01:58:21;;;;;;;9.48;6.03;;;20.40;97.40;;;;;;5056933;28;20021;-85
2021/07/03 02:00:49;;;;;;;11.70;6.65;;;20.40;97.30;;;;;;5056823;28;20475;-85
2021/07/03 02:03:15;;;;;;;10.35;5.95;;;20.30;97.20;;;;;;5039135;28;20029;-85
2021/07/03 02:05:41;;;;;;;11.88;6.18;;;20.40;97.40;;;;;;5056682;28;20112;-84
2021/07/03 02:08:07;;;;;;;11.73;6.30;;;20.40;97.60;;;;;;5038659;28;20448;-84
2021/07/03 02:10:32;;;;;;;13.10;6.53;;;20.50;97.80;;;;;;5056327;28;20025;-85
2021/07/03 02:12:58;;;;;;;26.92;7.43;;;20.60;97.80;;;;;;5038394;28;20021;-85
2021/07/03 02:15:24;;;;;;;11.32;6.25;;;20.70;97.50;;;;;;5038595;28;20025;-85
2021/07/03 02:17:50;;;;;;;9.13;5.93;;;20.80;97.20;;;;;;5056457;28;20383;-85
2021/07/03 02:20:16;;;;;;;8.68;6.55;;;20.90;97.00;;;;;;5056537;28;20040;-85
2021/07/03 02:22:42;;;;;;;9.13;6.68;;;21.00;96.90;;;;;;5038277;28;20068;-84
2021/07/03 02:25:08;;;;;;;12.20;6.28;;;21.20;96.40;;;;;;5055855;28;20053;-85
2021/07/03 02:27:34;;;;;;;9.93;7.05;;;21.40;96.10;;;;;;5056013;28;20021;-84
2021/07/03 02:30:01;;;;;;;14.88;7.80;;;21.50;95.30;;;;;;5054988;28;20070;-84
2021/07/03 02:32:27;;;;;;;13.68;7.80;;;21.70;95.00;;;;;;5055496;28;20051;-84
2021/07/03 02:34:53;;;;;;;21.00;10.30;;;21.90;94.80;;;;;;5056209;28;20099;-84
2021/07/03 02:37:19;;;;;;;15.63;9.52;;;22.30;94.50;;;;;;5056047;28;20052;-84
2021/07/03 02:39:44;;;;;;;13.98;8.75;;;22.80;93.80;;;;;;5055996;28;20027;-84
2021/07/03 02:42:10;;;;;;;12.50;6.63;;;23.30;92.40;;;;;;5038022;28;20021;-85
2021/07/03 02:44:36;;;;;;;9.30;6.30;;;23.70;91.10;;;;;;5055545;28;20084;-85
2021/07/03 02:47:02;;;;;;;9.00;5.88;;;24.00;90.10;;;;;;5055966;28;20027;-85
2021/07/03 02:49:28;;;;;;;11.25;5.22;;;24.40;89.80;;;;;;5054695;28;20025;-84
2021/07/03 02:51:55;;;;;;;12.43;5.60;;;25.00;88.40;;;;;;5056473;28;20079;-84
2021/07/03 02:54:20;;;;;;;12.40;6.38;;;25.70;86.00;;;;;;5056047;28;20045;-84
2021/07/03 02:56:46;;;;;;;12.73;5.88;;;26.40;83.70;;;;;;5037568;28;20373;-84
2021/07/03 02:59:12;;;;;;;11.45;5.75;;;27.20;81.40;;;;;;5055072;28;20021;-85
2021/07/03 03:01:38;;;;;;;12.18;5.80;;;27.90;79.20;;;;;;5055477;28;20035;-84
2021/07/03 03:04:03;;;;;;;6.18;5.25;;;28.50;76.70;;;;;;5037458;28;20039;-84
2021/07/03 03:06:29;;;;;;;14.75;8.75;;;29.10;74.40;;;;;;5054557;28;20107;-84
2021/07/03 03:08:55;;;;;;;15.52;9.70;;;29.70;72.40;;;;;;5037046;28;20471;-84
2021/07/03 03:11:21;;;;;;;13.23;7.85;;;29.80;70.30;;;;;;5054963;28;20025;-83
2021/07/03 03:13:46;;;;;;;11.70;6.90;;;29.90;69.40;;;;;;5037121;28;20078;-83
2021/07/03 03:16:12;;;;;;;10.02;5.88;;;29.90;68.60;;;;;;5054937;28;20024;-84
2021/07/03 03:18:38;;;;;;;8.95;6.25;;;30.00;67.90;;;;;;5055067;28;20025;-84
2021/07/03 03:21:04;;;;;;;12.35;7.10;;;29.70;67.00;;;;;;5055007;28;20122;-85
2021/07/03 03:23:29;;;;;;;8.10;6.20;;;29.30;67.30;;;;;;5037199;28;20037;-86
2021/07/03 03:25:55;;;;;;;9.13;4.82;;;29.20;68.00;;;;;;5036773;28;20028;-85
2021/07/03 03:28:21;;;;;;;5.45;4.50;;;29.30;67.80;;;;;;5054561;28;20035;-85
2021/07/03 03:30:47;;;;;;;9.30;4.65;;;29.50;67.60;;;;;;5036857;28;20071;-86
2021/07/03 03:33:12;;;;;;;14.40;6.47;;;30.20;67.50;;;;;;5054463;28;20021;-86
2021/07/03 03:35:38;;;;;;;9.27;4.97;;;30.90;66.20;;;;;;5054398;28;20060;-86
2021/07/03 03:38:04;;;;;;;8.38;4.55;;;31.50;64.90;;;;;;5037657;28;20025;-85
2021/07/03 03:40:30;;;;;;;11.82;4.63;;;32.00;63.50;;;;;;5054815;28;20028;-85
2021/07/03 03:42:55;;;;;;;14.18;5.25;;;32.40;61.60;;;;;;5036525;28;20028;-85
2021/07/03 03:45:22;;;;;;;16.77;9.25;;;32.60;60.60;;;;;;5058971;28;20050;-85
2021/07/03 03:47:48;;;;;;;19.83;13.25;;;32.80;59.60;;;;;;5059416;28;20032;-85
2021/07/03 03:50:13;;;;;;;28.88;18.73;;;33.10;59.30;;;;;;5038068;28;20029;-85
2021/07/03 03:52:40;;;;;;;26.38;16.52;;;33.30;58.70;;;;;;5054106;28;20060;-85
2021/07/03 03:55:07;;;;;;;27.13;14.45;;;33.20;57.90;;;;;;5053228;28;20472;-84
2021/07/03 03:57:33;;;;;;;22.63;12.88;;;33.20;57.10;;;;;;5054113;28;20025;-84
2021/07/03 04:00:00;;;;;;;25.60;12.70;;;32.80;57.10;;;;;;5052957;28;20028;-84
2021/07/03 04:02:26;;;;;;;49.60;16.40;;;32.40;57.20;;;;;;5052667;28;20040;-84
2021/07/03 04:04:52;;;;;;;69.65;21.75;;;32.20;57.30;;;;;;5054043;28;20040;-84
2021/07/03 04:07:22;;;;;;;70.72;21.00;;;32.30;57.70;;;;;;5053740;28;20415;-84
2021/07/03 04:09:49;;;;;;;103.60;27.67;;;32.50;57.20;;;;;;5053821;28;20040;-84
2021/07/03 04:12:15;;;;;;;72.88;21.77;;;33.10;57.50;;;;;;5053879;28;20021;-84
2021/07/03 04:14:40;;;;;;;52.58;17.67;;;33.70;56.80;;;;;;5053720;28;20025;-84
2021/07/03 04:17:06;;;;;;;51.13;17.70;;;34.60;55.80;;;;;;5053570;28;20021;-85
2021/07/03 04:19:32;;;;;;;45.88;16.52;;;35.40;54.80;;;;;;5054007;28;20056;-85
2021/07/03 04:21:59;;;;;;;42.08;15.77;;;36.10;53.10;;;;;;5053367;28;20036;-84
2021/07/03 04:24:25;;;;;;;41.05;16.63;;;36.50;51.90;;;;;;5053034;28;20036;-83
2021/07/03 04:26:51;;;;;;;32.67;14.93;;;36.70;51.10;;;;;;5052772;28;20021;-83
2021/07/03 04:29:17;;;;;;;50.30;18.08;;;36.90;50.50;;;;;;5034497;28;20100;-83
2021/07/03 04:31:43;;;;;;;38.83;15.82;;;37.30;50.10;;;;;;5052335;28;20445;-83
2021/07/03 04:34:09;;;;;;;38.72;15.95;;;37.70;49.20;;;;;;5052235;28;20020;-82
2021/07/03 04:36:34;;;;;;;37.22;15.13;;;38.00;48.60;;;;;;5052558;28;20025;-83
2021/07/03 04:39:00;;;;;;;31.70;13.85;;;38.60;48.10;;;;;;5052711;28;20028;-85
2021/07/03 04:41:26;;;;;;;35.58;15.52;;;39.10;47.70;;;;;;5052644;28;20036;-84
2021/07/03 04:43:52;;;;;;;32.65;14.85;;;39.50;45.90;;;;;;5052637;28;20500;-84
2021/07/03 04:46:17;;;;;;;33.45;15.32;;;39.50;45.50;;;;;;5052333;28;20131;-85
2021/07/03 04:48:43;;;;;;;34.75;15.27;;;39.80;45.30;;;;;;5051244;28;20127;-84
2021/07/03 04:51:09;;;;;;;29.63;14.95;;;40.20;45.40;;;;;;5052796;28;20025;-85
2021/07/03 04:53:34;;;;;;;29.15;13.88;;;40.70;44.30;;;;;;5051363;28;20044;-84
2021/07/03 04:56:00;;;;;;;29.98;14.45;;;41.30;43.70;;;;;;5055564;28;20065;-84
2021/07/03 04:58:26;;;;;;;29.95;14.85;;;41.80;42.80;;;;;;5056626;28;20033;-84
2021/07/03 05:00:52;;;;;;;28.25;14.20;;;42.20;42.20;;;;;;5056296;28;20436;-84
2021/07/03 05:03:17;;;;;;;30.52;15.98;;;42.70;41.80;;;;;;5055103;28;20036;-84
2021/07/03 05:05:43;;;;;;;32.40;17.52;;;43.00;41.20;;;;;;5056336;28;20041;-84
2021/07/03 05:08:09;;;;;;;30.00;15.30;;;43.20;40.60;;;;;;5056290;28;20040;-84
2021/07/03 05:10:37;;;;;;;34.72;16.30;;;43.30;40.30;;;;;;5056316;28;20104;-83
2021/07/03 05:13:02;;;;;;;37.70;17.65;;;43.50;40.00;;;;;;5056513;28;20104;-83
2021/07/03 05:15:28;;;;;;;35.95;15.30;;;43.50;39.90;;;;;;5056418;28;20104;-84
2021/07/03 05:17:54;;;;;;;39.20;16.15;;;43.50;39.70;;;;;;5056201;28;20070;-84
2021/07/03 05:20:20;;;;;;;31.17;14.63;;;43.70;39.50;;;;;;5056170;28;20032;-84
2021/07/03 05:22:45;;;;;;;38.95;15.75;;;44.00;39.30;;;;;;5062580;28;20037;-83
2021/07/03 05:25:12;;;;;;;36.90;18.38;;;44.30;39.00;;;;;;5055887;28;20056;-84
2021/07/03 05:27:37;;;;;;;38.03;16.88;;;44.70;38.60;;;;;;5055737;28;20103;-83
2021/07/03 05:30:05;;;;;;;31.55;13.93;;;44.70;38.40;;;;;;5055569;28;20056;-84
2021/07/03 05:32:30;;;;;;;36.28;15.88;;;45.00;38.20;;;;;;5056059;28;20031;-84
2021/07/03 05:34:56;;;;;;;21.75;13.52;;;45.20;37.80;;;;;;5055636;28;20107;-84
2021/07/03 05:37:22;;;;;;;29.83;13.45;;;45.10;37.80;;;;;;5055490;28;20017;-84
2021/07/03 05:39:47;;;;;;;27.45;14.82;;;45.20;37.90;;;;;;5055743;28;20043;-86
2021/07/03 05:42:13;;;;;;;26.00;12.75;;;45.40;37.80;;;;;;5055747;28;20048;-85
2021/07/03 05:44:39;;;;;;;22.45;13.57;;;45.40;37.80;;;;;;5056298;28;20372;-86
2021/07/03 05:47:05;;;;;;;23.85;13.10;;;45.50;37.70;;;;;;5056544;28;20502;-86
2021/07/03 05:49:30;;;;;;;17.13;11.90;;;45.50;37.60;;;;;;5056213;28;20513;-85
2021/07/03 05:51:56;;;;;;;22.40;12.30;;;45.50;37.50;;;;;;5055046;28;20024;-84
2021/07/03 05:54:22;;;;;;;14.95;11.73;;;45.50;37.20;;;;;;5055274;28;20049;-83
2021/07/03 05:56:49;;;;;;;20.83;11.45;;;45.60;37.50;;;;;;5055201;28;20056;-82
2021/07/03 05:59:16;;;;;;;19.27;11.13;;;45.80;37.40;;;;;;5054985;28;20013;-83
2021/07/03 06:01:41;;;;;;;21.58;11.75;;;46.10;37.30;;;;;;5060470;28;20383;-82
2021/07/03 06:04:07;;;;;;;16.35;11.48;;;46.30;37.10;;;;;;5073302;28;20037;-83
2021/07/03 06:06:33;;;;;;;22.77;12.60;;;46.50;36.90;;;;;;5072617;28;20035;-82
2021/07/03 06:08:59;;;;;;;21.33;11.25;;;46.70;36.50;;;;;;5073620;28;20601;-83
2021/07/03 06:11:25;;;;;;;16.63;11.10;;;46.90;36.30;;;;;;5047265;28;20033;-83
2021/07/03 06:13:53;;;;;;;15.85;10.35;;;46.90;36.10;;;;;;5072763;28;20103;-83
2021/07/03 06:16:19;;;;;;;20.80;11.07;;;47.10;36.20;;;;;;5072916;28;20017;-83
2021/07/03 06:18:45;;;;;;;15.65;11.18;;;47.20;36.10;;;;;;5073220;28;20013;-83
2021/07/03 06:21:10;;;;;;;21.20;14.43;;;47.30;35.90;;;;;;5072964;28;20069;-83
2021/07/03 06:23:36;;;;;;;14.07;9.50;;;47.30;35.70;;;;;;5073011;28;20028;-82
2021/07/03 06:26:04;;;;;;;16.63;10.65;;;47.30;35.70;;;;;;5073382;28;20028;-83
2021/07/03 06:28:31;;;;;;;20.77;13.90;;;47.30;35.50;;;;;;5072759;28;20348;-82
2021/07/03 06:30:57;;;;;;;26.73;10.85;;;47.30;35.40;;;;;;5072580;28;20403;-82
2021/07/03 06:33:22;;;;;;;12.57;10.23;;;47.30;35.50;;;;;;5072797;28;20029;-83
2021/07/03 06:35:49;;;;;;;16.67;9.55;;;47.20;35.50;;;;;;5073060;28;20811;-83
2021/07/03 06:38:15;;;;;;;18.52;10.65;;;47.10;35.60;;;;;;5072499;28;20091;-83
2021/07/03 06:40:41;;;;;;;13.18;9.43;;;47.10;35.60;;;;;;5072453;28;20238;-82
2021/07/03 06:43:06;;;;;;;13.55;9.55;;;46.90;35.70;;;;;;5054278;28;20039;-84
2021/07/03 06:45:32;;;;;;;12.77;10.68;;;46.80;35.90;;;;;;5072300;28;20021;-82
2021/07/03 06:47:58;;;;;;;18.25;10.25;;;46.70;35.70;;;;;;5072015;28;20104;-83
2021/07/03 06:50:24;;;;;;;15.27;10.07;;;46.70;35.90;;;;;;5073184;28;20016;-82
2021/07/03 06:52:50;;;;;;;19.67;9.48;;;46.60;35.90;;;;;;5073506;28;20025;-82
2021/07/03 06:55:16;;;;;;;16.65;9.15;;;46.60;35.90;;;;;;5071780;28;20060;-84
2021/07/03 06:57:42;;;;;;;29.77;9.90;;;46.60;36.10;;;;;;5071615;28;20028;-84
2021/07/03 07:00:11;;;;;;;21.60;10.68;;;46.70;36.20;;;;;;5071764;28;20025;-84
2021/07/03 07:02:37;;;;;;;17.70;10.57;;;45.70;35.70;;;;;;5074552;28;20068;-85
2021/07/03 07:05:06;;;;;;;17.73;11.88;;;44.10;36.20;;;;;;5045978;28;20036;-84
2021/07/03 07:07:32;;;;;;;16.42;11.63;;;41.90;37.90;;;;;;5047490;28;20024;-83
2021/07/03 07:09:57;;;;;;;15.52;9.35;;;40.80;39.70;;;;;;5045933;28;20108;-83
2021/07/03 07:12:23;;;;;;;14.82;9.32;;;40.30;40.20;;;;;;5069607;28;20041;-84
2021/07/03 07:14:49;;;;;;;16.63;8.88;;;39.60;41.20;;;;;;5072162;28;20096;-83
2021/07/03 07:17:16;;;;;;;14.23;7.97;;;39.70;41.50;;;;;;5071802;28;20460;-84
2021/07/03 07:19:42;;;;;;;17.75;9.02;;;39.70;41.40;;;;;;5076033;28;20374;-83
2021/07/03 07:22:07;;;;;;;16.55;8.40;;;39.50;41.00;;;;;;5072100;28;20024;-82
2021/07/03 07:24:33;;;;;;;14.40;7.97;;;39.10;41.50;;;;;;5071622;28;20021;-83
2021/07/03 07:26:59;;;;;;;14.48;8.32;;;39.10;41.90;;;;;;5071707;28;20386;-83
2021/07/03 07:29:24;;;;;;;10.95;7.20;;;39.00;41.90;;;;;;5071728;28;20020;-83
2021/07/03 07:31:50;;;;;;;17.08;7.72;;;39.30;42.50;;;;;;5071827;28;20034;-84
2021/07/03 07:34:17;;;;;;;11.38;7.20;;;39.40;41.70;;;;;;5072176;28;20726;-82
2021/07/03 07:36:48;;;;;;;14.60;7.05;;;39.10;41.70;;;;;;5044613;28;20083;-82
2021/07/03 07:39:14;;;;;;;13.23;7.20;;;39.10;42.20;;;;;;5072077;28;20017;-83
2021/07/03 07:41:40;;;;;;;15.20;7.68;;;39.10;41.90;;;;;;5072431;28;20572;-83
2021/07/03 07:44:06;;;;;;;15.32;7.38;;;39.00;41.50;;;;;;5054916;28;20028;-83
2021/07/03 07:46:31;;;;;;;18.85;8.13;;;38.80;41.90;;;;;;5072885;28;20097;-83
2021/07/03 07:48:58;;;;;;;13.15;8.18;;;38.90;42.40;;;;;;5073236;28;20036;-84
2021/07/03 07:51:23;;;;;;;13.95;8.40;;;39.10;42.50;;;;;;5054397;28;20032;-83
2021/07/03 07:53:49;;;;;;;15.50;9.05;;;39.50;42.60;;;;;;5072785;28;20037;-82
2021/07/03 07:56:21;;;;;;;17.00;9.40;;;39.30;41.60;;;;;;5073422;28;20052;-82
2021/07/03 07:58:47;;;;;;;14.80;8.40;;;39.10;41.60;;;;;;5054797;28;20079;-85
2021/07/03 08:01:13;;;;;;;12.63;7.60;;;39.20;42.10;;;;;;5071961;28;20052;-82
2021/07/03 08:03:40;;;;;;;9.52;8.43;;;39.30;42.20;;;;;;5071677;28;20024;-86
2021/07/03 08:06:06;;;;;;;11.18;8.13;;;39.00;42.10;;;;;;5073413;28;20040;-88
2021/07/03 08:08:32;;;;;;;14.38;8.35;;;38.40;42.50;;;;;;5056339;28;20021;-89
2021/07/03 08:10:57;;;;;;;12.30;8.13;;;38.20;43.30;;;;;;5049382;28;20556;-85
2021/07/03 08:13:23;;;;;;;13.73;9.25;;;38.00;44.30;;;;;;5073880;28;20024;-85
2021/07/03 08:15:50;;;;;;;14.98;9.75;;;37.60;43.80;;;;;;5054197;28;20049;-85
2021/07/03 08:18:18;;;;;;;16.35;10.25;;;37.00;44.50;;;;;;5054661;28;20029;-85
2021/07/03 08:20:44;;;;;;;16.27;10.52;;;36.50;45.40;;;;;;5072939;28;20794;-85
2021/07/03 08:23:09;;;;;;;12.82;9.60;;;36.10;46.40;;;;;;5072548;28;20035;-86
2021/07/03 08:25:35;;;;;;;13.95;10.07;;;35.60;46.60;;;;;;5072313;28;20026;-84
2021/07/03 08:28:01;;;;;;;11.18;9.20;;;35.30;47.10;;;;;;5072862;28;20024;-85
2021/07/03 08:30:28;;;;;;;13.63;10.50;;;35.20;47.70;;;;;;5054051;28;20104;-84
2021/07/03 08:32:54;;;;;;;16.98;9.63;;;35.10;47.90;;;;;;5072323;28;20013;-84
2021/07/03 08:35:20;;;;;;;14.55;10.23;;;34.90;48.40;;;;;;5072678;28;20417;-86
2021/07/03 08:37:46;;;;;;;17.00;10.32;;;35.00;48.50;;;;;;5072512;28;20190;-84
2021/07/03 08:40:16;;;;;;;14.68;9.30;;;35.00;48.50;;;;;;5072886;28;20027;-86
2021/07/03 08:42:43;;;;;;;16.65;9.80;;;34.90;48.50;;;;;;5073276;28;20016;-83
2021/07/03 08:45:09;;;;;;;17.48;9.88;;;34.70;48.70;;;;;;5072696;28;20112;-85
2021/07/03 08:47:41;;;;;;;14.00;9.20;;;34.60;49.10;;;;;;5055177;28;20027;-85
2021/07/03 08:50:09;;;;;;;14.98;9.13;;;34.70;49.90;;;;;;5072890;28;20062;-87
2021/07/03 08:52:35;;;;;;;12.65;9.05;;;34.90;49.20;;;;;;5072937;28;20472;-84
2021/07/03 08:55:27;;;;;;;14.80;8.88;;;34.80;48.70;;;;;;5055108;28;20399;-85
2021/07/03 08:57:55;;;;;;;11.90;9.70;;;34.80;49.10;;;;;;5069719;28;20367;-91
2021/07/03 09:00:29;;;;;;;15.32;10.77;;;34.80;49.00;;;;;;5072323;28;20085;-85
2021/07/03 09:02:55;;;;;;;17.77;11.02;;;34.80;48.90;;;;;;5053054;28;20387;-86
2021/07/03 09:05:22;;;;;;;13.30;9.38;;;34.70;49.00;;;;;;5073245;28;20050;-85
2021/07/03 09:07:48;;;;;;;16.65;9.95;;;34.70;49.50;;;;;;5072500;28;20035;-86
2021/07/03 09:10:19;;;;;;;22.73;10.15;;;34.60;49.60;;;;;;5072522;28;20331;-85
2021/07/03 09:12:49;;;;;;;14.60;9.90;;;34.40;49.80;;;;;;5072740;28;20016;-86
2021/07/03 09:15:23;;;;;;;21.00;10.82;;;34.20;50.00;;;;;;5072398;28;20027;-85
2021/07/03 09:17:59;;;;;;;20.55;9.48;;;33.90;50.40;;;;;;5072634;28;20142;-86
2021/07/03 09:20:25;;;;;;;17.45;8.73;;;33.80;50.80;;;;;;5072600;28;20031;-86
2021/07/03 09:22:51;;;;;;;13.68;8.77;;;33.40;51.50;;;;;;5072905;28;20095;-87
2021/07/03 09:25:20;;;;;;;14.20;9.73;;;33.30;51.80;;;;;;5077940;28;20513;-86
2021/07/03 09:27:47;;;;;;;12.20;8.90;;;33.30;51.80;;;;;;5054875;28;20107;-86
2021/07/03 09:30:16;;;;;;;13.88;9.63;;;33.20;52.00;;;;;;5073246;28;20071;-86
2021/07/03 09:32:52;;;;;;;15.07;8.75;;;33.30;52.30;;;;;;5072687;28;20493;-86
2021/07/03 09:35:18;;;;;;;14.15;9.32;;;33.50;52.00;;;;;;5055344;28;20055;-87
2021/07/03 09:37:49;;;;;;;13.80;9.68;;;33.50;51.50;;;;;;5055244;28;20440;-84
2021/07/03 09:40:15;;;;;;;12.83;9.67;;;33.40;51.60;;;;;;5054760;28;20024;-86
2021/07/03 09:42:43;;;;;;;13.10;9.07;;;33.30;51.90;;;;;;5057649;28;20031;-86
2021/07/03 09:45:11;;;;;;;14.73;9.20;;;33.20;51.90;;;;;;5076766;28;20387;-86
2021/07/03 09:47:37;;;;;;;14.70;8.48;;;33.20;52.10;;;;;;5059552;28;20024;-89
2021/07/03 09:50:14;;;;;;;11.98;8.57;;;33.20;52.30;;;;;;5076803;28;20017;-88
2021/07/03 09:52:40;;;;;;;13.05;8.32;;;33.20;52.00;;;;;;5058471;28;20037;-84
2021/07/03 09:55:08;;;;;;;12.45;8.70;;;33.20;51.80;;;;;;5076002;28;20121;-84
2021/07/03 09:57:37;;;;;;;15.27;8.85;;;33.00;52.00;;;;;;5076129;28;20017;-85
2021/07/03 10:00:09;;;;;;;16.17;7.78;;;32.80;52.20;;;;;;5076298;28;20490;-86
2021/07/03 10:02:36;;;;;;;11.48;8.10;;;32.20;52.60;;;;;;5076371;28;20520;-85
2021/07/03 10:05:04;;;;;;;12.77;7.80;;;31.80;53.80;;;;;;5058325;28;20375;-85
2021/07/03 10:07:38;;;;;;;18.30;8.18;;;31.50;54.10;;;;;;5076367;28;20020;-90
2021/07/03 10:10:14;;;;;;;13.30;8.63;;;31.10;54.30;;;;;;5058073;28;20025;-86
2021/07/03 10:12:44;;;;;;;13.07;7.80;;;30.80;55.10;;;;;;5076021;28;20016;-82
2021/07/03 10:15:10;;;;;;;14.45;9.98;;;30.50;55.70;;;;;;5074071;28;20459;-81
2021/07/03 10:17:36;;;;;;;12.70;9.02;;;30.40;56.60;;;;;;5056486;28;20111;-82
2021/07/03 10:20:14;;;;;;;11.68;9.35;;;30.60;56.80;;;;;;5074161;28;20199;-83
2021/07/03 10:22:54;;;;;;;14.18;8.50;;;30.60;57.20;;;;;;5056571;28;20150;-82
2021/07/03 10:25:26;;;;;;;10.68;8.48;;;30.50;57.20;;;;;;5074729;28;20482;-83
2021/07/03 10:27:55;;;;;;;9.68;8.77;;;30.40;56.90;;;;;;5074350;28;20025;-87
2021/07/03 10:30:29;;;;;;;12.98;8.85;;;30.30;57.50;;;;;;5075016;28;20027;-86
2021/07/03 10:32:56;;;;;;;15.13;9.10;;;30.50;58.30;;;;;;5074880;28;20024;-89
2021/07/03 10:35:23;;;;;;;18.83;9.63;;;30.80;58.30;;;;;;5074626;28;20391;-86
2021/07/03 10:37:49;;;;;;;16.50;8.98;;;31.00;58.00;;;;;;5074895;28;20031;-88
2021/07/03 10:40:21;;;;;;;13.00;9.25;;;31.10;57.60;;;;;;5074689;28;20083;-87
2021/07/03 10:42:51;;;;;;;10.38;9.07;;;31.00;58.00;;;;;;5075044;28;20051;-91
2021/07/03 10:45:23;;;;;;;16.38;9.55;;;30.80;58.40;;;;;;5079483;28;20044;-91
2021/07/03 10:47:58;;;;;;;19.70;9.85;;;30.40;59.20;;;;;;5081665;28;20025;-88
2021/07/03 10:50:27;;;;;;;12.60;9.68;;;30.00;59.70;;;;;;5067613;28;20025;-89
2021/07/03 10:52:56;;;;;;;11.20;9.57;;;29.60;60.10;;;;;;5081936;28;20016;-88
2021/07/03 10:55:34;;;;;;;17.17;9.65;;;29.40;60.80;;;;;;5061515;28;20045;-89
2021/07/03 10:58:20;;;;;;;11.05;8.63;;;29.30;61.60;;;;;;5063749;28;20021;-88
2021/07/03 11:00:51;;;;;;;12.38;10.25;;;29.30;61.70;;;;;;5062945;28;20032;-88
2021/07/03 11:03:23;;;;;;;16.13;10.20;;;29.40;61.90;;;;;;5061434;28;20025;-89
2021/07/03 11:05:51;;;;;;;13.55;9.75;;;29.50;61.80;;;;;;5057816;28;20048;-87
2021/07/03 11:08:20;;;;;;;13.63;9.43;;;29.30;62.00;;;;;;5055923;28;20031;-88
2021/07/03 11:10:48;;;;;;;13.75;9.18;;;29.20;62.40;;;;;;5058072;28;20025;-88
2021/07/03 11:13:24;;;;;;;12.85;9.40;;;28.90;62.50;;;;;;5057859;28;20027;-88
2021/07/03 11:15:51;;;;;;;13.15;9.82;;;28.80;63.20;;;;;;5056528;28;20017;-86
2021/07/03 11:18:18;;;;;;;13.88;9.93;;;28.80;63.40;;;;;;5055918;28;20440;-86
2021/07/03 11:20:44;;;;;;;14.43;10.00;;;28.80;63.40;;;;;;5058533;28;20049;-87
2021/07/03 11:23:12;;;;;;;14.20;10.70;;;28.70;63.90;;;;;;5057111;28;20028;-85
2021/07/03 11:25:45;;;;;;;12.93;10.10;;;28.70;64.50;;;;;;5058374;28;20108;-84
2021/07/03 11:28:14;;;;;;;21.33;9.80;;;28.70;64.30;;;;;;5056878;28;20044;-86
2021/07/03 11:30:42;;;;;;;16.13;9.25;;;28.80;64.00;;;;;;5055220;28;20396;-87
2021/07/03 11:33:10;;;;;;;11.07;9.52;;;28.90;63.90;;;;;;5057465;28;20021;-85
2021/07/03 11:35:39;;;;;;;14.68;9.27;;;28.80;63.40;;;;;;5067773;28;20100;-85
2021/07/03 11:38:04;;;;;;;12.32;8.80;;;28.70;63.50;;;;;;5072786;28;20021;-87
2021/07/03 11:40:32;;;;;;;13.93;8.88;;;28.60;63.80;;;;;;5062932;28;20430;-88
2021/07/03 11:43:13;;;;;;;14.90;9.07;;;28.50;64.10;;;;;;5058362;28;20028;-84
2021/07/03 11:45:41;;;;;;;10.75;8.48;;;28.50;64.00;;;;;;5054545;28;20029;-84
2021/07/03 11:48:15;;;;;;;12.63;8.57;;;28.60;63.50;;;;;;5055173;28;20487;-83
2021/07/03 11:50:53;;;;;;;15.40;9.43;;;28.80;63.70;;;;;;5055298;28;20039;-86
2021/07/03 11:53:21;;;;;;;16.25;9.57;;;29.10;63.60;;;;;;5056038;28;20029;-86
2021/07/03 11:55:50;;;;;;;13.98;9.65;;;29.40;63.30;;;;;;5057536;28;20414;-84
2021/07/03 11:58:20;;;;;;;19.88;11.27;;;29.60;62.70;;;;;;5074797;28;20032;-85
2021/07/03 12:01:11;;;;;;;18.30;12.05;;;29.80;62.10;;;;;;5074564;28;20036;-86
2021/07/03 12:03:42;;;;;;;21.75;12.52;;;30.00;61.50;;;;;;5074424;28;20056;-85
2021/07/03 12:06:08;;;;;;;17.02;10.68;;;30.10;61.00;;;;;;5073640;28;20028;-84
2021/07/03 12:08:46;;;;;;;21.33;11.25;;;30.30;60.80;;;;;;5073809;28;20032;-84
2021/07/03 12:11:15;;;;;;;16.33;11.43;;;30.40;60.60;;;;;;5056779;28;20067;-84
2021/07/03 12:13:46;;;;;;;11.75;9.30;;;30.40;60.30;;;;;;5074330;28;20058;-84
2021/07/03 12:16:13;;;;;;;12.10;10.02;;;30.30;60.50;;;;;;5055210;28;20021;-82
2021/07/03 12:18:49;;;;;;;15.00;9.85;;;30.20;60.90;;;;;;5072690;28;20095;-84
2021/07/03 12:21:18;;;;;;;13.50;9.77;;;30.00;61.20;;;;;;5073307;28;20028;-83
2021/07/03 12:23:57;;;;;;;14.45;9.70;;;29.90;61.60;;;;;;5072950;28;20024;-84
2021/07/03 12:26:32;;;;;;;15.88;10.82;;;30.00;61.70;;;;;;5072827;28;20036;-83
2021/07/03 12:29:05;;;;;;;14.27;11.32;;;30.10;61.90;;;;;;5072803;28;20055;-84
2021/07/03 12:31:35;;;;;;;17.70;10.65;;;30.20;61.70;;;;;;5055269;28;20467;-84
2021/07/03 12:34:22;;;;;;;12.15;9.73;;;30.20;61.50;;;;;;5054632;28;20032;-83